sensor_id;sensor_type;location;lat;lon;timestamp;pressure;altitude;pressure_sealevel;temperature;humidity
75629;BME280;64213;46.452;16.994;2023-04-01T00:00:33;98706.63;;;8.89;97.19
75629;BME280;64213;46.452;16.994;2023-04-01T00:03:36;98703.97;;;8.89;97.39
75629;BME280;64213;46.452;16.994;2023-04-01T00:06:39;98697.03;;;8.77;97.29
75629;BME280;64213;46.452;16.994;2023-04-01T00:09:41;98699.44;;;8.69;97.55
75629;BME280;64213;46.452;16.994;2023-04-01T00:12:44;98697.97;;;8.65;97.92
75629;BME280;64213;46.452;16.994;2023-04-01T00:15:47;98707.59;;;8.66;98.22
75629;BME280;64213;46.452;16.994;2023-04-01T00:18:50;98697.03;;;8.66;98.40
75629;BME280;64213;46.452;16.994;2023-04-01T00:21:52;98697.97;;;8.65;98.60
75629;BME280;64213;46.452;16.994;2023-04-01T00:24:55;98703.16;;;8.66;98.61
75629;BME280;64213;46.452;16.994;2023-04-01T00:27:57;98690.81;;;8.67;98.88
75629;BME280;64213;46.452;16.994;2023-04-01T00:31:04;98696.22;;;8.65;98.71
75629;BME280;64213;46.452;16.994;2023-04-01T00:34:06;98709.84;;;8.70;99.37
75629;BME280;64213;46.452;16.994;2023-04-01T00:37:08;98719.09;;;8.76;99.29
75629;BME280;64213;46.452;16.994;2023-04-01T00:40:31;98719.81;;;8.78;99.65
75629;BME280;64213;46.452;16.994;2023-04-01T00:43:34;98721.00;;;8.74;98.90
75629;BME280;64213;46.452;16.994;2023-04-01T00:46:36;98720.16;;;8.73;99.24
75629;BME280;64213;46.452;16.994;2023-04-01T00:49:40;98731.31;;;8.77;99.64
75629;BME280;64213;46.452;16.994;2023-04-01T00:52:44;98725.19;;;8.76;99.57
75629;BME280;64213;46.452;16.994;2023-04-01T00:55:56;98722.47;;;8.78;99.70
75629;BME280;64213;46.452;16.994;2023-04-01T00:59:02;98718.03;;;8.78;99.81
75629;BME280;64213;46.452;16.994;2023-04-01T01:02:08;98712.50;;;8.81;99.71
75629;BME280;64213;46.452;16.994;2023-04-01T01:05:16;98712.28;;;8.84;99.58
75629;BME280;64213;46.452;16.994;2023-04-01T01:18:50;98699.31;;;8.81;99.89
75629;BME280;64213;46.452;16.994;2023-04-01T01:25:08;98710.47;;;8.85;99.81
75629;BME280;64213;46.452;16.994;2023-04-01T01:38:27;98698.59;;;8.79;99.70
75629;BME280;64213;46.452;16.994;2023-04-01T01:41:32;98698.59;;;8.79;99.96
75629;BME280;64213;46.452;16.994;2023-04-01T01:44:37;98699.66;;;8.77;100.00
75629;BME280;64213;46.452;16.994;2023-04-01T01:47:41;98711.91;;;8.78;100.00
75629;BME280;64213;46.452;16.994;2023-04-01T01:50:45;98716.69;;;8.73;100.00
75629;BME280;64213;46.452;16.994;2023-04-01T01:53:48;98705.56;;;8.69;100.00
75629;BME280;64213;46.452;16.994;2023-04-01T01:57:03;98688.91;;;8.69;100.00
75629;BME280;64213;46.452;16.994;2023-04-01T02:01:00;98682.91;;;8.67;100.00
75629;BME280;64213;46.452;16.994;2023-04-01T02:04:03;98676.78;;;8.66;100.00
75629;BME280;64213;46.452;16.994;2023-04-01T02:07:18;98676.78;;;8.66;100.00
75629;BME280;64213;46.452;16.994;2023-04-01T02:10:22;98670.09;;;8.62;100.00
75629;BME280;64213;46.452;16.994;2023-04-01T02:13:52;98662.53;;;8.69;100.00
75629;BME280;64213;46.452;16.994;2023-04-01T02:17:05;98663.47;;;8.68;100.00
75629;BME280;64213;46.452;16.994;2023-04-01T02:20:12;98653.31;;;8.63;100.00
75629;BME280;64213;46.452;16.994;2023-04-01T02:23:16;98646.72;;;8.57;100.00
75629;BME280;64213;46.452;16.994;2023-04-01T02:26:18;98637.25;;;8.55;100.00
75629;BME280;64213;46.452;16.994;2023-04-01T02:29:23;98638.09;;;8.55;100.00
75629;BME280;64213;46.452;16.994;2023-04-01T02:32:27;98636.66;;;8.51;100.00
75629;BME280;64213;46.452;16.994;2023-04-01T02:35:34;98645.03;;;8.45;100.00
75629;BME280;64213;46.452;16.994;2023-04-01T02:38:37;98635.47;;;8.44;100.00
75629;BME280;64213;46.452;16.994;2023-04-01T02:41:42;98627.44;;;8.57;100.00
75629;BME280;64213;46.452;16.994;2023-04-01T02:44:45;98615.31;;;8.54;100.00
75629;BME280;64213;46.452;16.994;2023-04-01T02:47:47;98620.34;;;8.57;100.00
75629;BME280;64213;46.452;16.994;2023-04-01T02:50:50;98615.56;;;8.63;100.00
75629;BME280;64213;46.452;16.994;2023-04-01T02:53:52;98624.56;;;8.60;100.00
75629;BME280;64213;46.452;16.994;2023-04-01T02:56:55;98628.75;;;8.63;100.00
75629;BME280;64213;46.452;16.994;2023-04-01T02:59:57;98625.62;;;8.57;100.00
75629;BME280;64213;46.452;16.994;2023-04-01T03:02:59;98637.88;;;8.58;100.00
75629;BME280;64213;46.452;16.994;2023-04-01T03:06:10;98618.56;;;8.47;100.00
75629;BME280;64213;46.452;16.994;2023-04-01T03:09:12;98609.09;;;8.44;100.00
75629;BME280;64213;46.452;16.994;2023-04-01T03:12:16;98617.50;;;8.38;100.00
75629;BME280;64213;46.452;16.994;2023-04-01T03:15:18;98615.78;;;8.37;100.00
75629;BME280;64213;46.452;16.994;2023-04-01T03:18:20;98610.62;;;8.35;100.00
75629;BME280;64213;46.452;16.994;2023-04-01T03:21:23;98613.37;;;8.34;100.00
75629;BME280;64213;46.452;16.994;2023-04-01T03:24:25;98619.16;;;8.39;100.00
75629;BME280;64213;46.452;16.994;2023-04-01T03:27:27;98615.59;;;8.40;100.00
75629;BME280;64213;46.452;16.994;2023-04-01T03:30:30;98627.06;;;8.39;100.00
75629;BME280;64213;46.452;16.994;2023-04-01T03:33:33;98622.53;;;8.41;100.00
75629;BME280;64213;46.452;16.994;2023-04-01T03:36:35;98612.94;;;8.40;100.00
75629;BME280;64213;46.452;16.994;2023-04-01T03:39:37;98613.25;;;8.35;100.00
75629;BME280;64213;46.452;16.994;2023-04-01T03:42:40;98604.53;;;8.35;100.00
75629;BME280;64213;46.452;16.994;2023-04-01T03:45:46;98608.22;;;8.32;100.00
75629;BME280;64213;46.452;16.994;2023-04-01T03:48:48;98622.84;;;8.36;100.00
75629;BME280;64213;46.452;16.994;2023-04-01T03:51:51;98636.97;;;8.35;100.00
75629;BME280;64213;46.452;16.994;2023-04-01T03:54:53;98641.41;;;8.35;100.00
75629;BME280;64213;46.452;16.994;2023-04-01T03:57:55;98640.81;;;8.31;100.00
75629;BME280;64213;46.452;16.994;2023-04-01T04:00:57;98643.06;;;8.25;100.00
75629;BME280;64213;46.452;16.994;2023-04-01T04:03:59;98654.69;;;8.22;100.00
75629;BME280;64213;46.452;16.994;2023-04-01T04:07:02;98648.72;;;8.20;100.00
75629;BME280;64213;46.452;16.994;2023-04-01T04:10:05;98654.22;;;8.17;100.00
75629;BME280;64213;46.452;16.994;2023-04-01T04:13:07;98651.91;;;8.12;100.00
75629;BME280;64213;46.452;16.994;2023-04-01T04:16:10;98659.13;;;8.10;100.00
75629;BME280;64213;46.452;16.994;2023-04-01T04:19:12;98661.84;;;8.09;100.00
75629;BME280;64213;46.452;16.994;2023-04-01T04:22:14;98664.47;;;8.09;100.00
75629;BME280;64213;46.452;16.994;2023-04-01T04:25:16;98665.53;;;8.06;100.00
75629;BME280;64213;46.452;16.994;2023-04-01T04:28:19;98664.84;;;8.04;100.00
75629;BME280;64213;46.452;16.994;2023-04-01T04:31:22;98666.38;;;8.07;100.00
75629;BME280;64213;46.452;16.994;2023-04-01T04:34:25;98668.31;;;8.05;100.00
75629;BME280;64213;46.452;16.994;2023-04-01T04:37:27;98669.38;;;8.02;100.00
75629;BME280;64213;46.452;16.994;2023-04-01T04:40:29;98666.50;;;8.05;100.00
75629;BME280;64213;46.452;16.994;2023-04-01T04:43:31;98658.47;;;8.07;100.00
75629;BME280;64213;46.452;16.994;2023-04-01T04:46:33;98657.41;;;8.09;100.00
75629;BME280;64213;46.452;16.994;2023-04-01T04:49:36;98659.13;;;8.10;100.00
75629;BME280;64213;46.452;16.994;2023-04-01T04:52:38;98656.56;;;8.09;100.00
75629;BME280;64213;46.452;16.994;2023-04-01T04:55:47;98657.41;;;8.09;100.00
75629;BME280;64213;46.452;16.994;2023-04-01T04:58:50;98661.00;;;8.08;100.00
75629;BME280;64213;46.452;16.994;2023-04-01T05:01:52;98664.38;;;8.10;100.00
75629;BME280;64213;46.452;16.994;2023-04-01T05:04:54;98672.75;;;8.15;100.00
75629;BME280;64213;46.452;16.994;2023-04-01T05:07:56;98671.09;;;8.14;100.00
75629;BME280;64213;46.452;16.994;2023-04-01T05:10:58;98665.81;;;8.14;100.00
75629;BME280;64213;46.452;16.994;2023-04-01T05:14:01;98653.59;;;8.13;100.00
75629;BME280;64213;46.452;16.994;2023-04-01T05:17:03;98658.50;;;8.18;100.00
75629;BME280;64213;46.452;16.994;2023-04-01T05:20:06;98668.91;;;8.20;100.00
75629;BME280;64213;46.452;16.994;2023-04-01T05:23:08;98667.03;;;8.22;100.00
75629;BME280;64213;46.452;16.994;2023-04-01T05:26:14;98674.91;;;8.22;100.00
75629;BME280;64213;46.452;16.994;2023-04-01T05:29:16;98683.06;;;8.19;100.00
75629;BME280;64213;46.452;16.994;2023-04-01T05:32:18;98688.00;;;8.23;100.00
75629;BME280;64213;46.452;16.994;2023-04-01T05:35:20;98690.37;;;8.26;100.00
75629;BME280;64213;46.452;16.994;2023-04-01T05:38:22;98692.16;;;8.26;100.00
75629;BME280;64213;46.452;16.994;2023-04-01T05:41:24;98707.72;;;8.29;100.00
75629;BME280;64213;46.452;16.994;2023-04-01T05:44:26;98712.78;;;8.32;100.00
75629;BME280;64213;46.452;16.994;2023-04-01T05:47:28;98715.19;;;8.35;100.00
75629;BME280;64213;46.452;16.994;2023-04-01T05:50:31;98719.78;;;8.44;100.00
75629;BME280;64213;46.452;16.994;2023-04-01T05:53:35;98727.09;;;8.52;100.00
75629;BME280;64213;46.452;16.994;2023-04-01T05:56:37;98727.72;;;8.55;100.00
75629;BME280;64213;46.452;16.994;2023-04-01T05:59:39;98725.31;;;8.64;100.00
75629;BME280;64213;46.452;16.994;2023-04-01T06:02:42;98723.78;;;8.72;100.00
75629;BME280;64213;46.452;16.994;2023-04-01T06:05:44;98728.56;;;8.78;100.00
75629;BME280;64213;46.452;16.994;2023-04-01T06:08:48;98735.16;;;8.84;100.00
75629;BME280;64213;46.452;16.994;2023-04-01T06:19:20;98736.69;;;8.87;99.88
75629;BME280;64213;46.452;16.994;2023-04-01T06:34:58;98738.75;;;8.94;99.58
75629;BME280;64213;46.452;16.994;2023-04-01T06:48:37;98754.78;;;9.25;98.63
75629;BME280;64213;46.452;16.994;2023-04-01T06:55:36;98760.91;;;9.37;98.10
75629;BME280;64213;46.452;16.994;2023-04-01T06:58:46;98762.12;;;9.32;97.70
75629;BME280;64213;46.452;16.994;2023-04-01T07:01:52;98753.97;;;9.36;97.90
75629;BME280;64213;46.452;16.994;2023-04-01T07:04:57;98763.19;;;9.41;97.65
75629;BME280;64213;46.452;16.994;2023-04-01T07:08:03;98766.53;;;9.54;97.67
75629;BME280;64213;46.452;16.994;2023-04-01T07:11:09;98771.56;;;9.58;97.24
75629;BME280;64213;46.452;16.994;2023-04-01T07:14:35;98773.09;;;9.60;96.50
75629;BME280;64213;46.452;16.994;2023-04-01T07:17:39;98774.75;;;9.72;96.43
75629;BME280;64213;46.452;16.994;2023-04-01T07:20:44;98771.28;;;9.72;95.99
75629;BME280;64213;46.452;16.994;2023-04-01T07:23:47;98771.59;;;9.78;96.18
75629;BME280;64213;46.452;16.994;2023-04-01T07:26:55;98768.13;;;9.78;95.37
75629;BME280;64213;46.452;16.994;2023-04-01T07:29:58;98764.75;;;9.87;95.19
75629;BME280;64213;46.452;16.994;2023-04-01T07:33:23;98768.72;;;9.82;94.65
75629;BME280;64213;46.452;16.994;2023-04-01T07:36:46;98765.00;;;9.84;94.85
75629;BME280;64213;46.452;16.994;2023-04-01T07:40:17;98769.28;;;9.96;94.72
75629;BME280;64213;46.452;16.994;2023-04-01T07:50:17;98782.09;;;10.01;93.09
75629;BME280;64213;46.452;16.994;2023-04-01T07:53:37;98780.97;;;10.15;93.07
75629;BME280;64213;46.452;16.994;2023-04-01T07:56:51;98787.53;;;10.20;91.88
75629;BME280;64213;46.452;16.994;2023-04-01T08:06:47;98796.81;;;10.68;90.60
75629;BME280;64213;46.452;16.994;2023-04-01T08:13:16;98783.97;;;10.84;89.11
75629;BME280;64213;46.452;16.994;2023-04-01T08:16:25;98789.47;;;10.92;88.16
75629;BME280;64213;46.452;16.994;2023-04-01T08:23:14;98791.91;;;11.46;85.35
75629;BME280;64213;46.452;16.994;2023-04-01T08:29:40;98794.16;;;12.29;82.20
75629;BME280;64213;46.452;16.994;2023-04-01T08:32:58;98795.97;;;11.90;82.26
75629;BME280;64213;46.452;16.994;2023-04-01T08:39:09;98793.69;;;11.85;82.86
75629;BME280;64213;46.452;16.994;2023-04-01T08:42:36;98795.56;;;12.14;81.39
75629;BME280;64213;46.452;16.994;2023-04-01T08:52:36;98804.69;;;13.90;74.71
75629;BME280;64213;46.452;16.994;2023-04-01T08:55:47;98807.16;;;14.01;74.23
75629;BME280;64213;46.452;16.994;2023-04-01T08:59:04;98807.81;;;14.03;73.79
75629;BME280;64213;46.452;16.994;2023-04-01T09:09:28;98808.06;;;14.10;73.13
75629;BME280;64213;46.452;16.994;2023-04-01T09:21:57;98810.50;;;14.57;71.21
75629;BME280;64213;46.452;16.994;2023-04-01T09:31:54;98808.44;;;15.21;65.88
75629;BME280;64213;46.452;16.994;2023-04-01T09:35:22;98805.19;;;15.69;64.41
75629;BME280;64213;46.452;16.994;2023-04-01T09:38:28;98807.31;;;15.57;65.17
75629;BME280;64213;46.452;16.994;2023-04-01T09:44:58;98804.44;;;16.01;62.27
75629;BME280;64213;46.452;16.994;2023-04-01T09:58:33;98793.62;;;18.88;50.71
75629;BME280;64213;46.452;16.994;2023-04-01T10:09:43;98782.09;;;19.17;50.53
75629;BME280;64213;46.452;16.994;2023-04-01T10:37:42;98774.34;;;20.03;43.29
75629;BME280;64213;46.452;16.994;2023-04-01T10:51:40;98762.06;;;19.94;44.14
75629;BME280;64213;46.452;16.994;2023-04-01T11:05:45;98750.97;;;22.60;38.33
75629;BME280;64213;46.452;16.994;2023-04-01T11:26:41;98754.84;;;18.99;44.72
75629;BME280;64213;46.452;16.994;2023-04-01T11:33:14;98753.03;;;17.93;48.63
75629;BME280;64213;46.452;16.994;2023-04-01T11:37:01;98754.16;;;17.67;47.02
75629;BME280;64213;46.452;16.994;2023-04-01T11:44:14;98737.00;;;18.76;44.86
75629;BME280;64213;46.452;16.994;2023-04-01T12:07:57;98725.56;;;19.12;36.42
75629;BME280;64213;46.452;16.994;2023-04-01T12:24:49;98723.62;;;18.68;36.23
75629;BME280;64213;46.452;16.994;2023-04-01T12:35:16;98724.56;;;19.49;33.34
75629;BME280;64213;46.452;16.994;2023-04-01T12:38:36;98704.22;;;21.25;30.96
75629;BME280;64213;46.452;16.994;2023-04-01T12:42:11;98700.94;;;22.11;29.90
75629;BME280;64213;46.452;16.994;2023-04-01T12:55:39;98703.41;;;18.28;35.10
75629;BME280;64213;46.452;16.994;2023-04-01T13:02:56;98708.13;;;17.80;35.89
75629;BME280;64213;46.452;16.994;2023-04-01T13:09:51;98712.16;;;17.44;37.68
75629;BME280;64213;46.452;16.994;2023-04-01T13:16:19;98705.44;;;18.64;36.42
75629;BME280;64213;46.452;16.994;2023-04-01T13:25:58;98703.91;;;18.31;37.29
75629;BME280;64213;46.452;16.994;2023-04-01T13:29:25;98702.31;;;18.22;37.48
75629;BME280;64213;46.452;16.994;2023-04-01T13:32:35;98703.56;;;18.11;37.51
75629;BME280;64213;46.452;16.994;2023-04-01T13:35:55;98711.47;;;17.74;39.18
75629;BME280;64213;46.452;16.994;2023-04-01T13:42:38;98749.66;;;17.28;40.02
75629;BME280;64213;46.452;16.994;2023-04-01T13:46:04;98734.41;;;16.89;40.59
75629;BME280;64213;46.452;16.994;2023-04-01T13:55:44;98752.13;;;16.09;41.80
75629;BME280;64213;46.452;16.994;2023-04-01T14:03:09;98742.13;;;16.02;42.59
75629;BME280;64213;46.452;16.994;2023-04-01T14:10:02;98733.41;;;17.77;40.10
75629;BME280;64213;46.452;16.994;2023-04-01T14:16:58;98721.56;;;17.63;41.31
75629;BME280;64213;46.452;16.994;2023-04-01T14:20:23;98720.13;;;17.53;41.66
75629;BME280;64213;46.452;16.994;2023-04-01T14:23:49;98715.41;;;17.63;42.05
75629;BME280;64213;46.452;16.994;2023-04-01T14:34:18;98721.28;;;18.12;41.87
75629;BME280;64213;46.452;16.994;2023-04-01T14:41:19;98713.75;;;18.54;40.38
75629;BME280;64213;46.452;16.994;2023-04-01T14:48:14;98721.97;;;17.83;41.69
75629;BME280;64213;46.452;16.994;2023-04-01T14:51:35;98719.09;;;17.62;41.63
75629;BME280;64213;46.452;16.994;2023-04-01T14:54:43;98714.13;;;17.51;42.12
75629;BME280;64213;46.452;16.994;2023-04-01T15:08:27;98710.16;;;17.07;43.87
75629;BME280;64213;46.452;16.994;2023-04-01T15:12:08;98707.28;;;17.48;43.23
75629;BME280;64213;46.452;16.994;2023-04-01T15:19:05;98714.09;;;17.59;44.37
75629;BME280;64213;46.452;16.994;2023-04-01T15:22:48;98713.03;;;17.68;44.40
75629;BME280;64213;46.452;16.994;2023-04-01T15:37:22;98731.41;;;17.40;43.85
75629;BME280;64213;46.452;16.994;2023-04-01T15:40:57;98728.25;;;16.89;45.21
75629;BME280;64213;46.452;16.994;2023-04-01T15:47:41;98728.25;;;17.28;44.80
75629;BME280;64213;46.452;16.994;2023-04-01T15:50:47;98731.56;;;16.91;45.20
75629;BME280;64213;46.452;16.994;2023-04-01T16:00:41;98722.59;;;16.10;45.58
75629;BME280;64213;46.452;16.994;2023-04-01T16:07:36;98736.78;;;16.43;44.91
75629;BME280;64213;46.452;16.994;2023-04-01T16:11:27;98735.13;;;16.50;44.88
75629;BME280;64213;46.452;16.994;2023-04-01T16:18:25;98728.94;;;16.50;44.46
75629;BME280;64213;46.452;16.994;2023-04-01T16:21:53;98740.97;;;16.05;45.15
75629;BME280;64213;46.452;16.994;2023-04-01T16:28:40;98743.41;;;15.74;46.04
75629;BME280;64213;46.452;16.994;2023-04-01T16:41:36;98772.25;;;15.44;46.27
75629;BME280;64213;46.452;16.994;2023-04-01T16:48:57;98774.19;;;15.34;46.49
75629;BME280;64213;46.452;16.994;2023-04-01T16:55:20;98774.97;;;14.92;54.04
75629;BME280;64213;46.452;16.994;2023-04-01T16:59:07;98777.22;;;14.53;57.09
75629;BME280;64213;46.452;16.994;2023-04-01T17:02:18;98785.56;;;14.40;58.62
75629;BME280;64213;46.452;16.994;2023-04-01T17:19:49;98805.28;;;13.66;63.50
75629;BME280;64213;46.452;16.994;2023-04-01T17:33:43;98828.66;;;13.15;64.92
75629;BME280;64213;46.452;16.994;2023-04-01T17:37:11;98826.87;;;13.06;63.61
75629;BME280;64213;46.452;16.994;2023-04-01T17:40:37;98833.59;;;13.00;63.65
75629;BME280;64213;46.452;16.994;2023-04-01T17:44:15;98836.13;;;12.83;64.27
75629;BME280;64213;46.452;16.994;2023-04-01T17:54:41;98844.53;;;12.68;65.40
75629;BME280;64213;46.452;16.994;2023-04-01T17:58:17;98853.75;;;12.64;64.63
75629;BME280;64213;46.452;16.994;2023-04-01T18:05:39;98847.19;;;12.49;66.35
75629;BME280;64213;46.452;16.994;2023-04-01T18:15:38;98867.16;;;12.33;67.36
75629;BME280;64213;46.452;16.994;2023-04-01T18:19:04;98865.19;;;12.16;69.18
75629;BME280;64213;46.452;16.994;2023-04-01T18:22:32;98863.75;;;12.12;69.77
75629;BME280;64213;46.452;16.994;2023-04-01T18:25:44;98869.59;;;12.06;70.42
75629;BME280;64213;46.452;16.994;2023-04-01T18:32:36;98881.16;;;11.85;71.83
75629;BME280;64213;46.452;16.994;2023-04-01T18:45:57;98885.91;;;11.61;72.47
75629;BME280;64213;46.452;16.994;2023-04-01T18:49:27;98882.03;;;11.65;71.46
75629;BME280;64213;46.452;16.994;2023-04-01T18:52:46;98884.78;;;11.63;72.41
75629;BME280;64213;46.452;16.994;2023-04-01T18:56:24;98885.34;;;11.57;71.84
75629;BME280;64213;46.452;16.994;2023-04-01T18:59:57;98885.16;;;11.49;72.88
75629;BME280;64213;46.452;16.994;2023-04-01T19:06:55;98884.41;;;11.37;73.49
75629;BME280;64213;46.452;16.994;2023-04-01T19:10:24;98887.63;;;11.41;73.06
75629;BME280;64213;46.452;16.994;2023-04-01T19:13:38;98884.41;;;11.37;73.17
75629;BME280;64213;46.452;16.994;2023-04-01T19:24:03;98902.38;;;11.34;73.12
75629;BME280;64213;46.452;16.994;2023-04-01T19:30:22;98915.34;;;11.37;72.51
75629;BME280;64213;46.452;16.994;2023-04-01T19:34:01;98913.94;;;11.33;72.12
75629;BME280;64213;46.452;16.994;2023-04-01T19:41:00;98923.34;;;11.26;72.51
75629;BME280;64213;46.452;16.994;2023-04-01T19:51:23;98936.09;;;11.11;72.33
75629;BME280;64213;46.452;16.994;2023-04-01T19:58:33;98949.94;;;11.03;72.56
75629;BME280;64213;46.452;16.994;2023-04-01T20:01:50;98947.44;;;11.02;72.87
75629;BME280;64213;46.452;16.994;2023-04-01T20:04:56;98946.34;;;11.04;72.72
75629;BME280;64213;46.452;16.994;2023-04-01T20:08:10;98951.75;;;11.03;72.72
75629;BME280;64213;46.452;16.994;2023-04-01T20:14:44;98967.56;;;10.93;73.43
75629;BME280;64213;46.452;16.994;2023-04-01T20:17:52;98960.47;;;10.93;73.21
75629;BME280;64213;46.452;16.994;2023-04-01T20:21:06;98968.41;;;10.93;73.27
75629;BME280;64213;46.452;16.994;2023-04-01T20:27:26;98970.34;;;10.91;73.15
75629;BME280;64213;46.452;16.994;2023-04-01T20:30:58;98976.59;;;10.90;73.07
75629;BME280;64213;46.452;16.994;2023-04-01T20:37:57;98982.34;;;10.96;73.13
75629;BME280;64213;46.452;16.994;2023-04-01T20:41:19;98982.22;;;10.97;72.10
75629;BME280;64213;46.452;16.994;2023-04-01T20:44:41;98998.94;;;10.98;72.47
75629;BME280;64213;46.452;16.994;2023-04-01T20:51:17;98998.81;;;10.99;71.88
75629;BME280;64213;46.452;16.994;2023-04-01T20:54:42;98999.38;;;11.03;71.93
75629;BME280;64213;46.452;16.994;2023-04-01T20:58:18;99002.03;;;11.03;71.53
75629;BME280;64213;46.452;16.994;2023-04-01T21:15:15;99014.75;;;11.09;74.03
75629;BME280;64213;46.452;16.994;2023-04-01T21:35:31;99022.56;;;10.78;79.27
75629;BME280;64213;46.452;16.994;2023-04-01T21:49:25;99031.34;;;10.79;81.69
75629;BME280;64213;46.452;16.994;2023-04-01T21:57:01;99038.19;;;10.81;79.00
75629;BME280;64213;46.452;16.994;2023-04-01T22:06:44;99039.78;;;10.73;79.83
75629;BME280;64213;46.452;16.994;2023-04-01T22:10:05;99036.03;;;10.75;79.70
75629;BME280;64213;46.452;16.994;2023-04-01T22:13:17;99034.41;;;10.63;79.98
75629;BME280;64213;46.452;16.994;2023-04-01T22:29:29;99019.31;;;10.31;81.95
75629;BME280;64213;46.452;16.994;2023-04-01T22:36:50;99020.50;;;10.38;81.32
75629;BME280;64213;46.452;16.994;2023-04-01T22:40:10;99033.81;;;10.37;81.30
75629;BME280;64213;46.452;16.994;2023-04-01T22:46:40;99029.72;;;10.21;81.08
75629;BME280;64213;46.452;16.994;2023-04-01T22:49:56;99037.66;;;10.21;81.96
75629;BME280;64213;46.452;16.994;2023-04-01T22:53:31;99040.19;;;10.12;82.23
75629;BME280;64213;46.452;16.994;2023-04-01T22:56:42;99043.44;;;10.15;82.19
75629;BME280;64213;46.452;16.994;2023-04-01T22:59:54;99038.97;;;10.16;82.01
75629;BME280;64213;46.452;16.994;2023-04-01T23:06:29;99049.31;;;10.19;81.45
75629;BME280;64213;46.452;16.994;2023-04-01T23:09:35;99054.13;;;10.25;81.62
75629;BME280;64213;46.452;16.994;2023-04-01T23:12:40;99059.62;;;10.22;84.24
75629;BME280;64213;46.452;16.994;2023-04-01T23:15:43;99065.53;;;10.25;84.81
75629;BME280;64213;46.452;16.994;2023-04-01T23:25:34;99070.56;;;10.17;85.38
75629;BME280;64213;46.452;16.994;2023-04-01T23:28:49;99077.19;;;10.12;nan
75629;BME280;64213;46.452;16.994;2023-04-01T23:32:00;99076.91;;;10.04;87.75
75629;BME280;64213;46.452;16.994;2023-04-01T23:35:14;99079.69;;;10.02;87.64
75629;BME280;64213;46.452;16.994;2023-04-01T23:38:20;99081.22;;;10.05;88.37
75629;BME280;64213;46.452;16.994;2023-04-01T23:41:26;99084.13;;;10.01;88.69
75629;BME280;64213;46.452;16.994;2023-04-01T23:44:30;99081.59;;;10.00;87.95
75629;BME280;64213;46.452;16.994;2023-04-01T23:47:36;99083.41;;;9.99;87.74
75629;BME280;64213;46.452;16.994;2023-04-01T23:50:40;99080.78;;;9.99;88.29
75629;BME280;64213;46.452;16.994;2023-04-01T23:53:46;99089.16;;;9.93;87.92
75629;BME280;64213;46.452;16.994;2023-04-01T23:56:54;99091.06;;;9.91;88.51
